createdAt,value
2022-12-15T00:02:19.949Z,19.35
2022-12-15T00:05:06.679Z,20.00
2022-12-15T00:07:53.028Z,19.90
2022-12-15T00:10:38.940Z,19.52
2022-12-15T00:13:33.795Z,20.70
2022-12-15T00:16:19.587Z,21.05
2022-12-15T00:19:05.294Z,19.05
2022-12-15T00:21:51.098Z,18.95
2022-12-15T00:24:36.570Z,19.00
2022-12-15T00:27:23.072Z,19.48
2022-12-15T00:30:08.684Z,19.13
2022-12-15T00:32:54.430Z,19.63
2022-12-15T00:35:39.810Z,20.15
2022-12-15T00:38:26.986Z,19.67
2022-12-15T00:40:59.029Z,17.92
2022-12-15T00:43:31.291Z,20.67
2022-12-15T00:46:18.381Z,19.30
2022-12-15T00:48:46.514Z,19.23
2022-12-15T00:51:50.583Z,20.70
2022-12-15T00:54:36.696Z,20.17
2022-12-15T00:57:22.207Z,19.60
2022-12-15T01:00:07.997Z,20.05
2022-12-15T01:02:53.417Z,19.33
2022-12-15T01:05:39.190Z,20.67
2022-12-15T01:08:24.292Z,20.27
2022-12-15T01:11:09.737Z,20.02
2022-12-15T01:13:55.250Z,18.55
2022-12-15T01:16:40.789Z,19.42
2022-12-15T01:19:27.560Z,18.83
2022-12-15T01:21:54.785Z,19.63
2022-12-15T01:24:21.748Z,18.75
2022-12-15T01:26:48.966Z,19.27
2022-12-15T01:29:15.955Z,19.55
2022-12-15T01:31:44.070Z,18.42
2022-12-15T01:34:11.065Z,18.65
2022-12-15T01:36:38.241Z,19.60
2022-12-15T01:39:05.050Z,18.92
2022-12-15T01:41:32.226Z,19.40
2022-12-15T01:44:22.630Z,18.55
2022-12-15T01:46:55.495Z,17.47
2022-12-15T01:49:26.967Z,17.77
2022-12-15T01:51:59.613Z,20.08
2022-12-15T01:54:31.837Z,18.05
2022-12-15T01:57:09.569Z,19.02
2022-12-15T01:59:41.136Z,17.83
2022-12-15T02:02:08.370Z,18.50
2022-12-15T02:04:37.984Z,18.27
2022-12-15T02:07:05.480Z,18.23
2022-12-15T02:09:32.657Z,17.50
2022-12-15T02:12:29.368Z,16.40
2022-12-15T02:15:11.340Z,17.60
2022-12-15T02:18:06.579Z,17.20
2022-12-15T02:20:38.347Z,17.02
2022-12-15T02:23:23.919Z,18.92
2022-12-15T02:26:12.779Z,18.15
2022-12-15T02:29:03.266Z,17.33
2022-12-15T02:31:57.940Z,17.92
2022-12-15T02:34:40.175Z,18.98
2022-12-15T02:37:35.723Z,17.88
2022-12-15T02:40:05.614Z,18.25
2022-12-15T02:42:36.283Z,17.75
2022-12-15T02:45:09.391Z,17.40
2022-12-15T02:47:47.152Z,17.45
2022-12-15T02:50:25.213Z,18.92
2022-12-15T02:52:58.066Z,19.30
2022-12-15T02:55:34.186Z,18.33
2022-12-15T02:58:06.543Z,19.98
2022-12-15T03:00:42.885Z,18.55
2022-12-15T03:03:10.991Z,20.60
2022-12-15T03:05:38.252Z,19.55
2022-12-15T03:08:05.328Z,19.85
2022-12-15T03:10:32.449Z,19.05
2022-12-15T03:12:59.247Z,20.23
2022-12-15T03:15:29.117Z,19.13
2022-12-15T03:18:00.346Z,19.42
2022-12-15T03:20:27.474Z,17.35
2022-12-15T03:22:54.311Z,19.23
2022-12-15T03:25:21.473Z,18.65
2022-12-15T03:27:48.430Z,17.52
2022-12-15T03:30:15.697Z,20.50
2022-12-15T03:32:42.572Z,19.27
2022-12-15T03:35:09.937Z,17.85
2022-12-15T03:37:36.790Z,19.73
2022-12-15T03:40:04.334Z,18.10
2022-12-15T03:42:48.295Z,20.90
2022-12-15T03:45:21.160Z,18.02
2022-12-15T03:47:48.850Z,19.65
2022-12-15T03:50:21.585Z,18.98
2022-12-15T03:53:00.394Z,17.95
2022-12-15T03:55:28.952Z,18.60
2022-12-15T03:57:56.470Z,19.98
2022-12-15T04:00:27.001Z,17.48
2022-12-15T04:02:54.348Z,19.23
2022-12-15T04:05:25.819Z,18.30
2022-12-15T04:07:53.924Z,18.75
2022-12-15T04:10:25.290Z,17.77
2022-12-15T04:13:03.011Z,19.08
2022-12-15T04:15:30.490Z,19.05
2022-12-15T04:17:58.340Z,19.17
2022-12-15T04:20:25.632Z,19.13
2022-12-15T04:22:52.517Z,19.17
2022-12-15T04:25:41.311Z,18.77
2022-12-15T04:28:28.225Z,18.42
2022-12-15T04:31:19.208Z,19.50
2022-12-15T04:34:09.337Z,20.53
2022-12-15T04:36:57.123Z,19.65
2022-12-15T04:39:43.515Z,20.45
2022-12-15T04:42:29.377Z,20.13
2022-12-15T04:45:21.108Z,20.50
2022-12-15T04:48:07.799Z,21.92
2022-12-15T04:50:53.297Z,20.98
2022-12-15T04:53:39.453Z,21.30
2022-12-15T04:56:30.121Z,21.98
2022-12-15T04:59:15.850Z,22.13
2022-12-15T05:02:01.714Z,21.45
2022-12-15T05:04:47.593Z,19.38
2022-12-15T05:07:33.443Z,21.05
2022-12-15T05:10:19.292Z,21.85
2022-12-15T05:13:04.777Z,23.40
2022-12-15T05:15:51.660Z,23.08
2022-12-15T05:18:37.633Z,22.52
2022-12-15T05:21:23.366Z,20.05
2022-12-15T05:24:09.179Z,20.60
2022-12-15T05:26:55.033Z,21.60
2022-12-15T05:29:40.827Z,23.02
2022-12-15T05:32:08.605Z,20.45
2022-12-15T05:34:37.274Z,22.30
2022-12-15T05:37:05.641Z,22.02
2022-12-15T05:39:32.686Z,22.30
2022-12-15T05:42:00.205Z,26.52
2022-12-15T05:44:28.152Z,26.38
2022-12-15T05:46:55.329Z,23.20
2022-12-15T05:49:23.370Z,22.02
2022-12-15T05:51:50.830Z,23.20
2022-12-15T05:54:20.028Z,22.05
2022-12-15T05:56:50.557Z,21.50
2022-12-15T05:59:19.307Z,23.10
2022-12-15T06:01:46.903Z,22.55
2022-12-15T06:04:14.436Z,22.55
2022-12-15T06:06:42.215Z,23.60
2022-12-15T06:09:09.517Z,23.90
2022-12-15T06:11:37.677Z,22.73
2022-12-15T06:14:04.860Z,23.65
2022-12-15T06:16:32.579Z,24.20
2022-12-15T06:19:01.402Z,23.33
2022-12-15T06:21:37.522Z,24.98
2022-12-15T06:24:05.707Z,22.83
2022-12-15T06:26:37.827Z,24.77
2022-12-15T06:29:08.697Z,23.50
2022-12-15T06:31:37.260Z,26.85
2022-12-15T06:34:08.777Z,24.50
2022-12-15T06:36:36.652Z,24.40
2022-12-15T06:39:05.758Z,25.42
2022-12-15T06:41:33.502Z,24.58
2022-12-15T06:44:01.060Z,26.13
2022-12-15T06:46:30.115Z,25.90
2022-12-15T06:48:58.310Z,24.95
2022-12-15T06:51:28.897Z,25.95
2022-12-15T06:53:56.429Z,28.13
2022-12-15T06:56:32.520Z,26.58
2022-12-15T06:59:01.933Z,26.83
2022-12-15T07:01:30.314Z,28.58
2022-12-15T07:04:00.436Z,28.67
2022-12-15T07:06:34.160Z,29.05
2022-12-15T07:09:01.045Z,28.20
2022-12-15T07:11:28.328Z,28.00
2022-12-15T07:13:55.213Z,28.77
2022-12-15T07:16:23.205Z,27.42
2022-12-15T07:18:50.553Z,28.77
2022-12-15T07:21:18.113Z,26.63
2022-12-15T07:23:54.888Z,27.80
2022-12-15T07:26:24.278Z,25.77
2022-12-15T07:28:53.182Z,29.17
2022-12-15T07:31:20.480Z,27.88
2022-12-15T07:33:48.481Z,28.13
2022-12-15T07:36:16.594Z,27.20
2022-12-15T07:38:49.880Z,26.40
2022-12-15T07:41:19.894Z,26.60
2022-12-15T07:43:47.883Z,27.40
2022-12-15T07:46:16.139Z,25.45
2022-12-15T07:48:43.263Z,27.48
2022-12-15T07:51:18.812Z,26.52
2022-12-15T07:53:47.370Z,28.35
2022-12-15T07:56:15.469Z,27.23
2022-12-15T07:58:43.868Z,26.73
2022-12-15T08:01:13.299Z,26.30
2022-12-15T08:03:41.331Z,26.02
2022-12-15T08:06:11.745Z,23.77
2022-12-15T08:08:39.721Z,26.70
2022-12-15T08:11:08.606Z,26.13
2022-12-15T08:16:23.678Z,27.25
2022-12-15T08:18:50.681Z,25.77
2022-12-15T08:21:18.013Z,29.85
2022-12-15T08:23:45.376Z,27.83
2022-12-15T08:26:15.257Z,25.33
2022-12-15T08:28:43.463Z,25.08
2022-12-15T08:31:16.911Z,25.35
2022-12-15T08:33:45.184Z,22.90
2022-12-15T08:36:14.963Z,27.40
2022-12-15T08:38:43.406Z,26.30
2022-12-15T08:41:13.754Z,27.17
2022-12-15T08:43:48.179Z,33.22
2022-12-15T08:46:18.293Z,24.33
2022-12-15T08:48:45.997Z,29.77
2022-12-15T08:51:14.050Z,29.73
2022-12-15T08:53:40.893Z,29.02
2022-12-15T08:56:17.279Z,30.25
2022-12-15T08:58:45.909Z,27.67
2022-12-15T09:01:22.408Z,24.08
2022-12-15T09:03:52.243Z,26.13
2022-12-15T09:06:22.560Z,24.45
2022-12-15T09:08:50.523Z,27.35
2022-12-15T09:11:18.327Z,26.98
2022-12-15T09:13:45.249Z,25.02
2022-12-15T09:16:17.071Z,26.75
2022-12-15T09:18:47.210Z,24.08
2022-12-15T09:21:15.439Z,22.60
2022-12-15T09:23:43.184Z,20.02
2022-12-15T09:26:12.703Z,25.05
2022-12-15T09:28:39.929Z,24.30
2022-12-15T09:31:16.009Z,24.67
2022-12-15T09:33:44.438Z,27.45
2022-12-15T09:36:15.595Z,25.67
2022-12-15T09:38:43.293Z,27.08
2022-12-15T09:41:13.420Z,24.25
2022-12-15T09:44:32.930Z,24.52
2022-12-15T09:47:24.419Z,24.63
2022-12-15T09:49:58.242Z,25.77
2022-12-15T09:52:33.234Z,23.55
2022-12-15T09:55:01.928Z,24.30
2022-12-15T09:57:51.347Z,18.60
2022-12-15T10:00:23.602Z,23.77
2022-12-15T10:03:19.864Z,19.15
2022-12-15T10:06:16.252Z,18.95
2022-12-15T10:08:53.013Z,21.48
2022-12-15T10:11:55.662Z,21.92
2022-12-15T10:14:23.047Z,19.55
2022-12-15T10:17:19.944Z,21.38
2022-12-15T10:20:04.451Z,21.25
2022-12-15T10:22:34.157Z,21.40
2022-12-15T10:25:29.367Z,22.45
2022-12-15T10:28:15.995Z,22.50
2022-12-15T10:30:51.371Z,22.13
2022-12-15T10:33:21.738Z,24.83
2022-12-15T10:35:50.991Z,27.55
2022-12-15T10:38:38.623Z,25.45
2022-12-15T10:41:09.430Z,24.75
2022-12-15T10:43:41.998Z,25.47
2022-12-15T10:46:09.234Z,26.15
2022-12-15T10:48:37.146Z,23.10
2022-12-15T10:51:22.289Z,21.85
2022-12-15T10:53:53.297Z,21.00
2022-12-15T10:56:32.783Z,23.83
2022-12-15T10:59:31.851Z,24.10
2022-12-15T11:02:23.882Z,20.40
2022-12-15T11:05:18.107Z,23.70
2022-12-15T11:07:46.681Z,24.35
2022-12-15T11:10:26.751Z,25.40
2022-12-15T11:13:14.512Z,23.50
2022-12-15T11:15:47.487Z,24.48
2022-12-15T11:18:45.089Z,31.38
2022-12-15T11:21:39.635Z,29.55
2022-12-15T11:24:17.982Z,28.98
2022-12-15T11:26:53.620Z,29.75
2022-12-15T11:29:55.432Z,28.50
2022-12-15T11:32:47.354Z,22.65
2022-12-15T11:35:21.484Z,29.70
2022-12-15T11:37:55.955Z,26.67
2022-12-15T11:40:40.443Z,30.15
2022-12-15T11:43:55.501Z,28.85
2022-12-15T11:46:39.843Z,26.65
2022-12-15T11:49:41.389Z,25.35
2022-12-15T11:52:17.328Z,25.10
2022-12-15T11:54:55.435Z,27.95
2022-12-15T11:57:55.761Z,26.75
2022-12-15T12:00:23.660Z,22.30
2022-12-15T12:03:13.281Z,28.02
2022-12-15T12:05:55.415Z,33.92
2022-12-15T12:08:47.276Z,25.38
2022-12-15T12:11:45.960Z,26.63
2022-12-15T12:14:39.039Z,30.25
2022-12-15T12:17:36.943Z,23.38
2022-12-15T12:20:15.418Z,26.52
2022-12-15T12:23:05.590Z,25.60
2022-12-15T12:25:45.752Z,27.73
2022-12-15T12:28:22.968Z,26.42
2022-12-15T12:30:50.753Z,23.85
2022-12-15T12:33:34.347Z,30.17
2022-12-15T12:36:11.809Z,29.50
2022-12-15T12:38:50.746Z,31.65
2022-12-15T12:41:26.262Z,32.10
2022-12-15T12:43:58.854Z,31.83
2022-12-15T12:46:44.014Z,36.50
2022-12-15T12:49:12.143Z,30.90
2022-12-15T12:51:41.422Z,32.28
2022-12-15T12:54:36.863Z,33.75
2022-12-15T12:57:13.444Z,32.40
2022-12-15T12:59:57.624Z,36.70
2022-12-15T13:02:26.270Z,32.55
2022-12-15T13:05:43.160Z,36.53
2022-12-15T13:08:10.229Z,33.90
2022-12-15T13:10:39.823Z,34.00
2022-12-15T13:13:29.720Z,35.30
2022-12-15T13:16:25.922Z,30.63
2022-12-15T13:19:05.204Z,31.27
2022-12-15T13:21:43.029Z,31.23
2022-12-15T13:24:35.645Z,31.13
2022-12-15T13:27:14.222Z,31.42
2022-12-15T13:29:59.430Z,29.10
2022-12-15T13:32:28.743Z,28.20
2022-12-15T13:34:57.222Z,30.55
2022-12-15T13:37:43.945Z,31.73
2022-12-15T13:40:35.291Z,29.10
2022-12-15T13:43:05.475Z,27.17
2022-12-15T13:45:59.036Z,25.92
2022-12-15T13:48:30.162Z,25.65
2022-12-15T13:53:38.723Z,26.75
2022-12-15T13:56:23.419Z,24.17
2022-12-15T13:58:59.832Z,24.73
2022-12-15T14:01:32.683Z,23.17
2022-12-15T14:04:20.775Z,22.15
2022-12-15T14:06:57.664Z,24.58
2022-12-15T14:09:33.312Z,19.92
2022-12-15T14:12:04.571Z,22.33
2022-12-15T14:14:37.182Z,20.70
2022-12-15T14:17:09.057Z,22.38
2022-12-15T14:19:44.616Z,20.83
2022-12-15T14:22:28.702Z,21.52
2022-12-15T14:25:14.510Z,20.67
2022-12-15T14:27:42.036Z,22.52
2022-12-15T14:30:16.506Z,22.58
2022-12-15T14:32:47.302Z,23.00
2022-12-15T14:35:24.891Z,20.73
2022-12-15T14:37:55.830Z,20.90
2022-12-15T14:40:28.399Z,21.85
2022-12-15T14:42:56.804Z,20.95
2022-12-15T14:45:27.390Z,23.73
2022-12-15T14:51:00.362Z,23.13
2022-12-15T14:53:33.805Z,22.05
2022-12-15T14:56:33.068Z,19.98
2022-12-15T14:59:17.441Z,20.85
2022-12-15T15:02:01.964Z,22.33
2022-12-15T15:04:34.142Z,21.55
2022-12-15T15:07:04.416Z,21.20
2022-12-15T15:09:38.204Z,21.13
2022-12-15T15:12:08.408Z,17.77
2022-12-15T15:15:08.401Z,22.20
2022-12-15T15:17:39.323Z,20.00
2022-12-15T15:20:24.491Z,21.33
2022-12-15T15:23:17.886Z,21.65
2022-12-15T15:25:56.707Z,19.17
2022-12-15T15:28:28.248Z,21.58
2022-12-15T15:31:05.522Z,22.85
2022-12-15T15:33:33.354Z,21.88
2022-12-15T15:36:02.004Z,21.83
2022-12-15T15:38:38.525Z,22.40
2022-12-15T15:41:16.744Z,21.90
2022-12-15T15:43:44.004Z,21.90
2022-12-15T15:46:15.795Z,25.25
2022-12-15T15:48:47.282Z,24.63
2022-12-15T15:51:14.711Z,20.98
2022-12-15T15:53:41.750Z,22.50
2022-12-15T15:56:12.138Z,21.33
2022-12-15T15:58:39.248Z,24.67
2022-12-15T16:01:12.667Z,26.17
2022-12-15T16:03:40.412Z,19.83
2022-12-15T16:06:17.216Z,23.10
2022-12-15T16:08:46.499Z,22.75
2022-12-15T16:11:13.708Z,21.95
2022-12-15T16:13:40.652Z,23.92
2022-12-15T16:16:17.993Z,23.50
2022-12-15T16:18:45.184Z,23.15
2022-12-15T16:21:14.549Z,21.02
2022-12-15T16:23:44.898Z,23.50
2022-12-15T16:26:15.413Z,24.07
2022-12-15T16:28:42.370Z,21.05
2022-12-15T16:31:15.722Z,22.40
2022-12-15T16:33:42.782Z,21.27
2022-12-15T16:36:18.985Z,22.02
2022-12-15T16:38:45.836Z,21.45
2022-12-15T16:41:16.700Z,22.65
2022-12-15T16:43:48.157Z,22.77
2022-12-15T16:46:16.012Z,21.52
2022-12-15T16:48:43.416Z,22.10
2022-12-15T16:51:33.982Z,23.33
2022-12-15T16:54:00.894Z,25.17
2022-12-15T16:56:28.078Z,22.98
2022-12-15T16:59:15.483Z,22.23
2022-12-15T17:01:44.696Z,22.08
2022-12-15T17:04:12.160Z,23.38
2022-12-15T17:06:39.849Z,25.00
2022-12-15T17:09:08.873Z,21.58
2022-12-15T17:11:36.136Z,21.80
2022-12-15T17:14:03.000Z,21.45
2022-12-15T17:16:30.284Z,23.45
2022-12-15T17:18:57.289Z,22.15
2022-12-15T17:21:34.025Z,23.35
2022-12-15T17:24:06.440Z,22.98
2022-12-15T17:26:36.408Z,21.90
2022-12-15T17:29:13.338Z,21.75
2022-12-15T17:31:40.683Z,25.30
2022-12-15T17:34:25.504Z,24.42
2022-12-15T17:36:53.034Z,22.17
2022-12-15T17:39:21.877Z,22.30
2022-12-15T17:41:59.819Z,24.85
2022-12-15T17:44:33.627Z,25.17
2022-12-15T17:47:04.571Z,24.40
2022-12-15T17:49:36.037Z,24.52
2022-12-15T17:52:07.998Z,23.92
2022-12-15T17:57:02.702Z,23.30
2022-12-15T17:59:31.818Z,26.60
2022-12-15T18:01:59.346Z,26.83
2022-12-15T18:04:26.454Z,26.73
2022-12-15T18:06:59.683Z,23.65
2022-12-15T18:09:28.939Z,25.50
2022-12-15T18:11:56.230Z,26.23
2022-12-15T18:14:23.451Z,26.42
2022-12-15T18:16:50.926Z,25.98
2022-12-15T18:19:18.042Z,26.60
2022-12-15T18:21:45.275Z,23.33
2022-12-15T18:24:17.462Z,24.70
2022-12-15T18:26:44.862Z,24.60
2022-12-15T18:29:14.153Z,24.10
2022-12-15T18:31:42.334Z,24.55
2022-12-15T18:34:15.023Z,26.80
2022-12-15T18:36:43.024Z,24.13
2022-12-15T18:39:23.806Z,24.17
2022-12-15T18:41:52.512Z,23.40
2022-12-15T18:44:25.905Z,24.17
2022-12-15T18:46:55.328Z,21.63
2022-12-15T18:49:23.707Z,22.02
2022-12-15T18:51:51.768Z,23.65
2022-12-15T18:54:24.101Z,23.10
2022-12-15T18:56:51.668Z,22.95
2022-12-15T18:59:19.567Z,24.42
2022-12-15T19:01:48.489Z,23.73
2022-12-15T19:04:15.595Z,23.25
2022-12-15T19:06:44.440Z,24.35
2022-12-15T19:09:19.160Z,24.00
2022-12-15T19:12:06.714Z,23.13
2022-12-15T19:14:43.362Z,21.20
2022-12-15T19:17:31.471Z,21.08
2022-12-15T19:20:16.903Z,23.17
2022-12-15T19:22:45.543Z,22.92
2022-12-15T19:25:25.815Z,24.13
2022-12-15T19:27:59.691Z,20.98
2022-12-15T19:30:29.428Z,20.88
2022-12-15T19:32:56.934Z,21.85
2022-12-15T19:35:24.911Z,21.90
2022-12-15T19:37:55.129Z,21.02
2022-12-15T19:40:27.561Z,22.17
2022-12-15T19:42:55.428Z,21.48
2022-12-15T19:45:26.470Z,23.35
2022-12-15T19:47:54.158Z,19.90
2022-12-15T19:50:23.972Z,20.40
2022-12-15T19:52:55.366Z,20.15
2022-12-15T19:55:27.036Z,20.35
2022-12-15T19:57:54.181Z,24.08
2022-12-15T20:00:22.400Z,21.48
2022-12-15T20:02:51.663Z,21.35
2022-12-15T20:05:20.149Z,21.05
2022-12-15T20:07:48.485Z,20.48
2022-12-15T20:10:24.474Z,22.83
2022-12-15T20:12:55.013Z,18.30
2022-12-15T20:15:25.138Z,20.88
2022-12-15T20:17:57.012Z,19.90
2022-12-15T20:20:27.696Z,18.55
2022-12-15T20:22:59.016Z,21.77
2022-12-15T20:25:33.585Z,18.90
2022-12-15T20:28:01.577Z,19.77
2022-12-15T20:30:35.467Z,18.98
2022-12-15T20:33:04.376Z,18.73
2022-12-15T20:35:34.700Z,17.95
2022-12-15T20:38:13.418Z,19.70
2022-12-15T20:40:40.337Z,19.38
2022-12-15T20:43:18.717Z,20.52
2022-12-15T20:45:47.134Z,21.75
2022-12-15T20:48:15.389Z,20.00
2022-12-15T20:50:48.469Z,20.55
2022-12-15T20:53:23.924Z,21.65
2022-12-15T20:55:52.604Z,21.25
2022-12-15T20:58:20.587Z,20.60
2022-12-15T21:00:49.031Z,21.08
2022-12-15T21:05:53.135Z,21.50
2022-12-15T21:08:31.595Z,21.92
2022-12-15T21:11:15.381Z,22.85
2022-12-15T21:13:42.985Z,22.15
2022-12-15T21:16:28.949Z,24.33
2022-12-15T21:19:20.374Z,23.13
2022-12-15T21:21:45.797Z,23.63
2022-12-15T21:24:15.571Z,23.63
2022-12-15T21:26:43.085Z,23.05
2022-12-15T21:29:19.397Z,23.80
2022-12-15T21:31:46.654Z,22.27
2022-12-15T21:34:14.151Z,22.73
2022-12-15T21:36:44.263Z,22.85
2022-12-15T21:39:34.771Z,22.08
2022-12-15T21:42:11.754Z,21.85
2022-12-15T21:44:38.837Z,20.42
2022-12-15T21:47:47.612Z,21.48
2022-12-15T21:50:18.915Z,22.20
2022-12-15T21:52:47.478Z,22.67
2022-12-15T21:55:21.341Z,22.80
2022-12-15T21:57:48.283Z,22.42
2022-12-15T22:00:17.555Z,23.90
2022-12-15T22:02:46.074Z,22.85
2022-12-15T22:05:16.572Z,24.33
2022-12-15T22:07:43.691Z,25.52
2022-12-15T22:10:11.365Z,24.50
2022-12-15T22:12:40.181Z,26.45
2022-12-15T22:15:23.439Z,27.45
2022-12-15T22:17:50.777Z,24.92
2022-12-15T22:20:21.530Z,25.10
2022-12-15T22:22:48.561Z,27.83
2022-12-15T22:25:20.791Z,25.00
2022-12-15T22:27:48.498Z,24.95
2022-12-15T22:30:23.756Z,23.98
2022-12-15T22:32:50.736Z,25.20
2022-12-15T22:35:23.877Z,24.35
2022-12-15T22:37:53.944Z,24.88
2022-12-15T22:40:23.396Z,26.02
2022-12-15T22:42:57.241Z,26.08
2022-12-15T22:45:25.020Z,26.98
2022-12-15T22:47:53.301Z,25.10
2022-12-15T22:50:24.886Z,25.98
2022-12-15T22:52:52.213Z,25.83
2022-12-15T22:55:20.876Z,27.10
2022-12-15T22:57:59.479Z,27.05
2022-12-15T23:00:29.516Z,28.27
2022-12-15T23:05:30.644Z,27.80
2022-12-15T23:07:58.982Z,29.27
2022-12-15T23:10:44.525Z,31.33
2022-12-15T23:17:25.542Z,25.23
2022-12-15T23:19:52.372Z,26.73
2022-12-15T23:22:19.479Z,26.33
2022-12-15T23:24:46.366Z,26.45
2022-12-15T23:27:13.470Z,27.50
2022-12-15T23:29:40.475Z,25.60
2022-12-15T23:32:07.633Z,27.08
2022-12-15T23:34:35.028Z,25.95
2022-12-15T23:37:02.702Z,29.70
2022-12-15T23:39:29.644Z,28.23
2022-12-15T23:41:56.735Z,28.17
2022-12-15T23:44:23.537Z,29.52
2022-12-15T23:46:50.717Z,27.52
2022-12-15T23:49:17.551Z,29.90
2022-12-15T23:51:44.691Z,28.20
2022-12-15T23:54:11.526Z,27.65
2022-12-15T23:56:39.452Z,28.63
2022-12-15T23:59:06.793Z,28.00
